Time;durP1;ratioP1;P1;durP2;ratioP2;P2;SDS_P1;SDS_P2;PMS_P1;PMS_P2;Temp;Humidity;BMP_temperature;BMP_pressure;BME280_temperature;BME280_humidity;BME280_pressure;Samples;Min_cycle;Max_cycle;Signal;HPM_P1;HPM_P2
2023/05/29 00:00:26;;;;;;;7.80;4.18;;;;;;;26.01;36.79;99623.00;4250128;33;32799;-64
2023/05/29 00:02:54;;;;;;;7.45;4.00;;;;;;;26.03;36.80;99625.50;4274823;33;33525;-64
2023/05/29 00:05:21;;;;;;;6.45;3.90;;;;;;;26.01;36.79;99624.91;4275128;33;33913;-66
2023/05/29 00:07:50;;;;;;;8.40;4.03;;;;;;;26.01;36.85;99622.16;4267313;33;34155;-65
2023/05/29 00:10:18;;;;;;;8.80;4.28;;;;;;;26.01;36.85;99623.00;4260454;33;34071;-64
2023/05/29 00:12:45;;;;;;;8.38;4.22;;;;;;;26.01;36.80;99625.72;4260762;33;33593;-64
2023/05/29 00:15:13;;;;;;;7.45;4.28;;;;;;;26.00;36.80;99618.59;4260500;33;34799;-66
2023/05/29 00:17:41;;;;;;;7.18;4.03;;;;;;;26.00;36.77;99621.34;4260396;33;33877;-65
2023/05/29 00:20:09;;;;;;;6.70;4.00;;;;;;;26.01;36.75;99619.44;4260525;33;33118;-65
2023/05/29 00:22:37;;;;;;;6.75;3.70;;;;;;;26.02;36.76;99626.53;4259502;33;33736;-65
2023/05/29 00:25:05;;;;;;;6.03;4.12;;;;;;;26.01;36.75;99623.00;4260384;33;34824;-64
2023/05/29 00:27:33;;;;;;;8.88;4.05;;;;;;;26.01;36.76;99627.63;4260576;33;34150;-66
2023/05/29 00:30:01;;;;;;;5.60;3.25;;;;;;;26.00;36.77;99628.72;4260368;33;34197;-65
2023/05/29 00:32:30;;;;;;;6.45;3.67;;;;;;;26.01;36.78;99627.63;4260712;33;33706;-65
2023/05/29 00:34:58;;;;;;;5.62;3.35;;;;;;;25.99;36.77;99616.94;4260241;33;34013;-65
2023/05/29 00:37:26;;;;;;;7.43;3.92;;;;;;;25.99;36.77;99624.31;4260194;33;34226;-65
2023/05/29 00:39:53;;;;;;;6.12;4.00;;;;;;;25.98;36.79;99623.50;4260439;33;34399;-65
2023/05/29 00:42:21;;;;;;;7.28;3.97;;;;;;;25.99;36.81;99624.31;4260133;33;33960;-65
2023/05/29 00:44:49;;;;;;;6.53;4.03;;;;;;;25.98;36.82;99625.41;4270938;33;33996;-66
2023/05/29 00:47:17;;;;;;;8.75;3.60;;;;;;;25.98;36.79;99648.09;4260505;33;34835;-65
2023/05/29 00:49:44;;;;;;;6.43;3.87;;;;;;;25.99;36.79;99638.00;4260153;33;34544;-65
2023/05/29 00:52:12;;;;;;;6.25;3.25;;;;;;;25.98;36.76;99617.22;4259808;33;33773;-66
2023/05/29 00:54:43;;;;;;;6.87;4.12;;;;;;;25.98;36.71;99626.25;4259880;33;34185;-65
2023/05/29 00:57:12;;;;;;;7.57;4.15;;;;;;;25.97;36.71;99630.03;4270417;33;34870;-66
2023/05/29 00:59:40;;;;;;;6.23;3.80;;;;;;;25.96;36.69;99631.09;4259057;33;34271;-65
2023/05/29 01:02:07;;;;;;;5.47;3.08;;;;;;;25.97;36.68;99627.28;4259036;33;33963;-66
2023/05/29 01:04:35;;;;;;;6.90;4.12;;;;;;;25.96;36.72;99620.16;4259948;33;33979;-65
2023/05/29 01:07:03;;;;;;;6.70;3.85;;;;;;;25.97;36.71;99616.34;4261811;33;34099;-65
2023/05/29 01:09:31;;;;;;;8.98;3.37;;;;;;;25.95;36.67;99611.16;4274428;33;33669;-66
2023/05/29 01:12:10;;;;;;;6.25;3.65;;;;;;;25.97;36.65;99610.06;4274262;33;33949;-65
2023/05/29 01:15:12;;;;;;;8.02;3.55;;;;;;;25.95;36.61;99613.88;4274422;33;33780;-66
2023/05/29 01:18:17;;;;;;;6.07;3.40;;;;;;;25.97;36.60;99619.09;4274331;33;34937;-66
2023/05/29 01:21:03;;;;;;;7.25;4.05;;;;;;;25.95;36.57;99622.09;4274404;33;33548;-65
2023/05/29 01:23:38;;;;;;;5.30;3.40;;;;;;;25.93;36.56;99615.22;4261327;33;34959;-66
2023/05/29 01:26:43;;;;;;;7.62;3.60;;;;;;;25.91;36.61;99622.81;4261455;33;33831;-65
2023/05/29 01:29:12;;;;;;;10.43;3.85;;;;;;;25.92;36.59;99621.75;4274338;33;34866;-65
2023/05/29 01:31:40;;;;;;;7.25;3.87;;;;;;;25.89;36.61;99616.78;4261295;33;34647;-65
2023/05/29 01:34:08;;;;;;;7.97;4.15;;;;;;;25.89;36.58;99609.41;4261200;33;33706;-65
2023/05/29 01:36:36;;;;;;;6.12;3.75;;;;;;;25.88;36.58;99610.50;4274415;33;33993;-65
2023/05/29 01:39:04;;;;;;;8.40;4.12;;;;;;;25.88;36.56;99612.37;4274139;33;34105;-65
2023/05/29 01:41:32;;;;;;;6.70;3.55;;;;;;;25.87;36.55;99611.53;4274164;33;33290;-65
2023/05/29 01:43:59;;;;;;;8.15;4.25;;;;;;;25.88;36.51;99610.50;4261205;33;34082;-65
2023/05/29 01:46:27;;;;;;;5.93;3.53;;;;;;;25.88;36.50;99606.91;4261233;33;34814;-66
2023/05/29 01:48:57;;;;;;;6.25;3.53;;;;;;;25.87;36.48;99603.34;4274190;33;33734;-64
2023/05/29 01:51:25;;;;;;;7.65;3.87;;;;;;;25.86;36.46;99598.97;4274126;33;33686;-64
2023/05/29 01:53:53;;;;;;;7.22;3.78;;;;;;;25.87;36.46;99599.78;4273854;33;33931;-64
2023/05/29 01:56:21;;;;;;;9.43;3.83;;;;;;;25.87;36.43;99605.25;4261056;33;34729;-66
2023/05/29 01:58:48;;;;;;;6.90;3.60;;;;;;;25.87;36.43;99599.78;4261319;33;34844;-65
2023/05/29 02:01:16;;;;;;;6.68;3.83;;;;;;;25.87;36.42;99597.06;4260925;33;33401;-65
2023/05/29 02:03:44;;;;;;;5.53;3.17;;;;;;;25.86;36.43;99587.19;4261227;33;33764;-65
2023/05/29 02:06:12;;;;;;;8.02;3.80;;;;;;;25.85;36.38;99586.38;4273983;33;33532;-66
2023/05/29 02:08:39;;;;;;;5.40;3.53;;;;;;;25.86;36.35;99588.03;4261619;33;33774;-65
2023/05/29 02:11:07;;;;;;;6.97;3.50;;;;;;;25.86;36.39;99581.75;4258738;33;33839;-66
2023/05/29 02:13:34;;;;;;;6.03;3.35;;;;;;;25.86;36.42;99584.47;4259636;33;33877;-65
2023/05/29 02:16:02;;;;;;;7.43;3.78;;;;;;;25.85;36.43;99586.38;4259556;33;34823;-66
2023/05/29 02:18:30;;;;;;;6.07;3.50;;;;;;;25.84;36.42;99583.91;4259757;33;34005;-66
2023/05/29 02:20:58;;;;;;;6.28;3.53;;;;;;;25.84;36.34;99584.72;4259469;33;33757;-65
2023/05/29 02:23:27;;;;;;;6.90;3.95;;;;;;;25.83;36.37;99580.31;4259366;33;33998;-66
2023/05/29 02:25:55;;;;;;;7.75;3.50;;;;;;;25.84;36.34;99581.16;4259343;33;34158;-66
2023/05/29 02:28:22;;;;;;;6.40;3.30;;;;;;;25.83;36.39;99582.22;4259568;33;34808;-66
2023/05/29 02:30:50;;;;;;;6.90;4.10;;;;;;;25.83;36.37;99579.50;4259278;33;33487;-66
2023/05/29 02:33:18;;;;;;;7.45;4.28;;;;;;;25.82;36.39;99573.19;4259420;33;34094;-66
2023/05/29 02:35:45;;;;;;;8.93;3.67;;;;;;;25.82;36.40;99578.66;4259388;33;34731;-66
2023/05/29 02:38:13;;;;;;;6.15;3.70;;;;;;;25.81;36.43;99581.66;4259019;33;33754;-66
2023/05/29 02:40:41;;;;;;;7.72;3.40;;;;;;;25.82;36.36;99572.38;4259621;33;33271;-66
2023/05/29 02:43:09;;;;;;;7.62;3.97;;;;;;;25.81;36.36;99570.72;4259331;33;34001;-66
2023/05/29 02:45:37;;;;;;;8.18;3.42;;;;;;;25.81;36.47;99565.25;4269543;33;34919;-65
2023/05/29 02:48:04;;;;;;;5.40;3.28;;;;;;;25.80;36.41;99571.81;4259244;33;34123;-66
2023/05/29 02:50:32;;;;;;;6.40;3.47;;;;;;;25.79;36.42;99565.50;4259134;33;34521;-66
2023/05/29 02:53:00;;;;;;;6.10;3.60;;;;;;;25.79;36.40;99554.59;4258985;33;34660;-66
2023/05/29 02:55:31;;;;;;;7.75;4.03;;;;;;;25.80;36.37;99564.44;4259119;33;34829;-65
2023/05/29 02:58:01;;;;;;;6.55;3.30;;;;;;;25.80;36.33;99563.59;4258884;33;33838;-65
2023/05/29 03:00:30;;;;;;;8.10;4.20;;;;;;;25.80;36.32;99571.81;4259021;33;34420;-66
2023/05/29 03:02:58;;;;;;;6.40;3.55;;;;;;;25.79;36.39;99575.63;4259034;33;33647;-65
2023/05/29 03:05:25;;;;;;;7.60;3.75;;;;;;;25.80;36.37;99566.34;4257706;33;34786;-66
2023/05/29 03:07:53;;;;;;;6.78;3.67;;;;;;;25.79;36.42;99570.97;4266952;33;34553;-65
2023/05/29 03:10:22;;;;;;;8.38;3.25;;;;;;;25.79;36.46;99579.19;4273415;33;34411;-65
2023/05/29 03:12:51;;;;;;;7.00;3.50;;;;;;;25.80;36.41;99569.06;4273296;33;33984;-66
2023/05/29 03:15:20;;;;;;;6.47;3.75;;;;;;;25.78;36.43;99572.03;4273374;33;33722;-65
2023/05/29 03:17:48;;;;;;;8.32;3.87;;;;;;;25.78;36.48;99563.00;4275127;33;34590;-66
2023/05/29 03:20:16;;;;;;;6.50;3.97;;;;;;;25.78;36.47;99561.09;4275175;33;33678;-65
2023/05/29 03:22:44;;;;;;;6.45;3.47;;;;;;;25.79;36.48;99572.88;4275341;33;34099;-65
2023/05/29 03:25:11;;;;;;;5.93;3.37;;;;;;;25.78;36.46;99560.28;4275107;33;33908;-65
2023/05/29 03:27:39;;;;;;;6.20;3.45;;;;;;;25.78;36.46;99563.00;4274866;33;34227;-65
2023/05/29 03:30:09;;;;;;;6.75;3.92;;;;;;;25.76;36.48;99576.94;4275251;33;34454;-66
2023/05/29 03:32:37;;;;;;;5.78;3.40;;;;;;;25.77;36.44;99575.03;4274897;33;34793;-66
2023/05/29 03:35:05;;;;;;;6.68;3.50;;;;;;;25.76;36.44;99578.84;4262252;33;34343;-66
2023/05/29 03:37:34;;;;;;;8.40;3.85;;;;;;;25.77;36.40;99583.22;4275328;33;34393;-66
2023/05/29 03:40:02;;;;;;;7.12;3.70;;;;;;;25.75;36.44;99580.72;4275141;33;33454;-66
2023/05/29 03:42:33;;;;;;;6.25;3.35;;;;;;;25.76;36.41;99581.56;4275000;33;33818;-66
2023/05/29 03:45:01;;;;;;;7.45;3.47;;;;;;;25.76;36.43;99587.03;4275266;33;33912;-66
2023/05/29 03:47:29;;;;;;;9.60;4.10;;;;;;;25.75;36.45;99586.19;4275179;33;34537;-66
2023/05/29 03:49:57;;;;;;;7.82;4.15;;;;;;;25.75;36.47;99588.91;4274930;33;32980;-66
2023/05/29 03:52:24;;;;;;;6.30;3.50;;;;;;;25.76;36.50;99600.69;4274861;33;33216;-65
2023/05/29 03:54:53;;;;;;;9.13;4.47;;;;;;;25.78;36.56;99609.47;4262267;33;34038;-65
2023/05/29 03:57:21;;;;;;;7.10;3.47;;;;;;;25.77;36.55;99603.19;4274983;33;34957;-65
2023/05/29 03:59:49;;;;;;;8.02;4.45;;;;;;;25.78;36.53;99612.19;4274779;33;33586;-65
2023/05/29 04:02:17;;;;;;;8.73;3.78;;;;;;;25.77;36.58;99605.09;4262121;33;33806;-65
2023/05/29 04:04:47;;;;;;;8.38;3.85;;;;;;;25.76;36.61;99603.44;4274791;33;34128;-66
2023/05/29 04:07:17;;;;;;;9.25;4.20;;;;;;;25.76;36.56;99598.78;4270726;33;34059;-64
2023/05/29 04:09:44;;;;;;;8.63;3.90;;;;;;;25.75;36.57;99594.38;4260631;33;33706;-66
2023/05/29 04:12:13;;;;;;;9.02;4.07;;;;;;;25.76;36.60;99597.97;4260751;33;33663;-65
2023/05/29 04:14:41;;;;;;;6.40;3.33;;;;;;;25.75;36.61;99594.38;4259373;33;33853;-65
2023/05/29 04:17:08;;;;;;;8.07;3.58;;;;;;;25.75;36.57;99596.28;4260301;33;33984;-66
2023/05/29 04:19:36;;;;;;;7.55;4.10;;;;;;;25.75;36.61;99599.84;4260465;33;33583;-66
2023/05/29 04:22:04;;;;;;;7.65;3.78;;;;;;;25.75;36.59;99599.03;4260438;33;34329;-66
2023/05/29 04:24:32;;;;;;;7.20;3.60;;;;;;;25.74;36.62;99598.19;4260544;33;33865;-65
2023/05/29 04:27:01;;;;;;;6.10;3.80;;;;;;;25.74;36.67;99600.06;4270760;33;33644;-65
2023/05/29 04:29:30;;;;;;;6.70;4.20;;;;;;;25.74;36.68;99603.66;4260209;33;33747;-65
2023/05/29 04:31:57;;;;;;;7.12;3.80;;;;;;;25.75;36.69;99599.03;4260268;33;34566;-65
2023/05/29 04:34:26;;;;;;;6.78;3.87;;;;;;;25.74;36.69;99609.12;4260683;33;34728;-65
2023/05/29 04:36:54;;;;;;;8.10;4.50;;;;;;;25.73;36.71;99607.44;4260407;33;34064;-66
2023/05/29 04:39:22;;;;;;;6.62;3.87;;;;;;;25.73;36.78;99606.63;4260364;33;34247;-64
2023/05/29 04:41:51;;;;;;;6.65;3.95;;;;;;;25.73;36.78;99603.88;4260377;33;34565;-64
2023/05/29 04:44:19;;;;;;;8.27;4.12;;;;;;;25.73;36.83;99612.91;4260536;33;34753;-64
2023/05/29 04:46:47;;;;;;;7.07;3.95;;;;;;;25.74;36.82;99609.12;4260500;33;33856;-65
2023/05/29 04:49:15;;;;;;;6.37;3.85;;;;;;;25.74;36.84;99611.84;4260672;33;33549;-65
2023/05/29 04:51:42;;;;;;;6.47;3.78;;;;;;;25.73;36.85;99610.19;4260255;33;33880;-66
2023/05/29 04:54:10;;;;;;;5.62;3.53;;;;;;;25.73;36.88;99618.38;4247362;33;33827;-65
2023/05/29 04:56:40;;;;;;;7.07;3.70;;;;;;;25.74;36.88;99621.94;4247293;33;35117;-65
2023/05/29 04:59:07;;;;;;;6.37;3.87;;;;;;;25.74;36.88;99613.72;4260248;33;33663;-65
2023/05/29 05:01:35;;;;;;;5.80;3.92;;;;;;;25.74;36.87;99617.31;4260363;33;33915;-65
2023/05/29 05:04:03;;;;;;;6.18;3.87;;;;;;;25.75;36.86;99615.41;4260413;33;34781;-65
2023/05/29 05:06:31;;;;;;;7.15;4.20;;;;;;;25.74;36.87;99616.47;4259157;33;34823;-65
2023/05/29 05:08:58;;;;;;;6.90;3.65;;;;;;;25.73;36.88;99617.53;4257717;33;34876;-65
2023/05/29 05:11:27;;;;;;;10.68;4.90;;;;;;;25.73;36.90;99620.28;4252646;33;33830;-65
2023/05/29 05:13:55;;;;;;;7.07;4.07;;;;;;;25.74;36.90;99622.78;4253473;33;33912;-65
2023/05/29 05:16:23;;;;;;;8.65;4.10;;;;;;;25.72;36.90;99619.47;4252157;33;34157;-66
2023/05/29 05:18:51;;;;;;;10.10;4.50;;;;;;;25.74;36.90;99622.78;4252472;33;33580;-66
2023/05/29 05:21:18;;;;;;;7.47;3.92;;;;;;;25.74;36.92;99622.78;4263720;33;33915;-65
2023/05/29 05:23:46;;;;;;;7.07;3.87;;;;;;;25.74;36.94;99628.25;4252412;33;34141;-66
2023/05/29 05:26:26;;;;;;;7.65;3.72;;;;;;;25.74;36.98;99625.53;4258792;33;34183;-65
2023/05/29 05:28:56;;;;;;;8.02;4.00;;;;;;;25.75;37.01;99626.34;4260303;33;33486;-65
2023/05/29 05:31:24;;;;;;;6.22;4.30;;;;;;;25.76;37.03;99639.78;4260263;33;33630;-66
2023/05/29 05:33:52;;;;;;;7.43;4.37;;;;;;;25.75;37.04;99635.37;4259078;33;33814;-65
2023/05/29 05:36:20;;;;;;;8.18;3.70;;;;;;;25.76;37.03;99634.31;4260053;33;34728;-64
2023/05/29 05:38:48;;;;;;;9.60;4.25;;;;;;;25.75;37.06;99631.81;4259669;33;34441;-65
2023/05/29 05:41:16;;;;;;;9.10;4.18;;;;;;;25.77;37.05;99626.94;4259727;33;34144;-66
2023/05/29 05:43:44;;;;;;;6.35;3.85;;;;;;;25.76;37.08;99636.22;4260117;33;34876;-66
2023/05/29 05:46:13;;;;;;;9.20;4.65;;;;;;;25.77;37.10;99635.16;4260008;33;34011;-65
2023/05/29 05:48:41;;;;;;;7.80;4.05;;;;;;;25.76;37.11;99637.06;4259798;33;33579;-65
2023/05/29 05:51:10;;;;;;;6.50;4.37;;;;;;;25.77;37.10;99637.88;4259927;33;33951;-65
2023/05/29 05:53:39;;;;;;;5.82;3.72;;;;;;;25.76;37.13;99639.78;4259798;33;33894;-65
2023/05/29 05:56:07;;;;;;;6.75;4.20;;;;;;;25.76;37.14;99634.31;4259877;33;34755;-66
2023/05/29 05:58:34;;;;;;;8.82;4.00;;;;;;;25.77;37.14;99626.94;4259711;33;33707;-65
2023/05/29 06:01:02;;;;;;;8.95;4.22;;;;;;;25.78;37.17;99636.78;4260017;33;34006;-64
2023/05/29 06:03:32;;;;;;;7.30;4.00;;;;;;;25.77;37.18;99629.69;4259764;33;34866;-66
2023/05/29 06:06:01;;;;;;;7.85;4.70;;;;;;;25.77;37.22;99638.69;4259992;33;34172;-65
2023/05/29 06:08:29;;;;;;;6.80;3.97;;;;;;;25.77;37.21;99640.63;4271185;33;34347;-66
2023/05/29 06:10:57;;;;;;;8.07;3.97;;;;;;;25.77;37.20;99638.69;4273981;33;33965;-66
2023/05/29 06:13:25;;;;;;;10.57;4.87;;;;;;;25.78;37.23;99647.72;4274205;33;34918;-65
2023/05/29 06:15:53;;;;;;;7.75;4.40;;;;;;;25.78;37.26;99647.72;4274053;33;34075;-65
2023/05/29 06:18:21;;;;;;;7.20;3.83;;;;;;;25.77;37.28;99652.38;4273824;33;34736;-65
2023/05/29 06:20:49;;;;;;;7.80;3.80;;;;;;;25.78;37.29;99655.94;4273700;33;33947;-65
2023/05/29 06:23:17;;;;;;;7.35;4.05;;;;;;;25.78;37.29;99658.66;4273578;33;33607;-65
2023/05/29 06:25:45;;;;;;;6.60;4.28;;;;;;;25.78;37.33;99659.47;4273968;33;34266;-65
2023/05/29 06:28:14;;;;;;;7.90;4.20;;;;;;;25.78;37.35;99655.94;4273973;33;33361;-64
2023/05/29 06:30:42;;;;;;;6.78;4.03;;;;;;;25.77;37.35;99649.63;4273724;33;33727;-65
2023/05/29 06:33:12;;;;;;;6.25;3.90;;;;;;;25.77;37.37;99654.28;4273442;33;34335;-65
2023/05/29 06:35:40;;;;;;;6.95;4.10;;;;;;;25.78;37.37;99655.94;4273409;33;34190;-65
2023/05/29 06:38:08;;;;;;;7.15;4.30;;;;;;;25.79;37.39;99665.81;4267376;33;33438;-65
2023/05/29 06:40:36;;;;;;;7.75;4.53;;;;;;;25.79;37.41;99668.53;4259106;33;33949;-65
2023/05/29 06:43:04;;;;;;;9.52;4.00;;;;;;;25.79;37.42;99668.53;4259134;33;33936;-67
2023/05/29 06:45:33;;;;;;;8.27;4.20;;;;;;;25.80;37.47;99667.47;4259108;33;33059;-66
2023/05/29 06:48:01;;;;;;;8.55;4.12;;;;;;;25.80;37.47;99667.47;4258789;33;34437;-66
2023/05/29 06:50:29;;;;;;;8.02;3.92;;;;;;;25.81;37.49;99674.59;4259025;33;34246;-66
2023/05/29 06:52:58;;;;;;;7.35;4.55;;;;;;;25.81;37.54;99677.31;4259368;33;34122;-65
2023/05/29 06:55:26;;;;;;;7.85;4.60;;;;;;;25.82;37.54;99671.59;4260803;33;34050;-66
2023/05/29 06:57:54;;;;;;;9.23;4.07;;;;;;;25.82;37.55;99668.84;4260701;33;33454;-65
2023/05/29 07:00:22;;;;;;;9.02;4.10;;;;;;;25.82;37.57;99673.50;4260460;33;35145;-65
2023/05/29 07:02:51;;;;;;;6.90;4.40;;;;;;;25.83;37.64;99677.88;4260716;33;34684;-64
2023/05/29 07:05:18;;;;;;;6.75;4.07;;;;;;;25.82;37.71;99668.84;4260819;33;34138;-63
2023/05/29 07:07:46;;;;;;;7.60;3.97;;;;;;;25.82;37.71;99668.84;4268038;33;34114;-63
2023/05/29 07:10:15;;;;;;;9.23;4.25;;;;;;;25.83;37.64;99675.16;4275026;33;34667;-62
2023/05/29 07:12:43;;;;;;;7.30;4.00;;;;;;;25.82;37.56;99671.59;4274995;33;34681;-63
2023/05/29 07:15:10;;;;;;;6.55;4.35;;;;;;;25.82;37.49;99674.31;4274948;33;34683;-63
2023/05/29 07:17:39;;;;;;;9.80;4.20;;;;;;;25.81;37.42;99669.94;4274913;33;34274;-62
2023/05/29 07:20:08;;;;;;;10.40;4.47;;;;;;;25.81;37.34;99680.03;4274884;33;34004;-63
2023/05/29 07:22:37;;;;;;;8.52;4.65;;;;;;;25.82;37.06;99676.22;4275175;33;34696;-63
2023/05/29 07:25:05;;;;;;;9.15;4.82;;;;;;;25.81;36.96;99678.12;4275172;33;35577;-64
2023/05/29 07:27:35;;;;;;;8.65;4.53;;;;;;;25.81;37.00;99680.87;4275030;33;33577;-64
2023/05/29 07:30:03;;;;;;;10.53;5.37;;;;;;;25.81;37.04;99680.87;4275058;33;33778;-64
2023/05/29 07:32:31;;;;;;;12.32;4.62;;;;;;;25.81;37.04;99680.87;4250372;33;34052;-64
2023/05/29 07:34:59;;;;;;;7.53;4.87;;;;;;;25.80;36.94;99690.16;4274952;33;34743;-64
2023/05/29 07:37:27;;;;;;;8.80;4.45;;;;;;;25.80;36.96;99695.63;4274860;33;34302;-63
2023/05/29 07:39:54;;;;;;;7.07;4.62;;;;;;;25.80;36.95;99689.31;4274739;33;34560;-64
2023/05/29 07:42:26;;;;;;;7.55;4.50;;;;;;;25.81;36.92;99699.19;4274539;33;34004;-64
2023/05/29 07:44:53;;;;;;;8.97;4.93;;;;;;;25.81;36.94;99705.47;4274871;33;34631;-64
2023/05/29 07:47:23;;;;;;;8.18;4.53;;;;;;;25.82;36.92;99714.50;4249693;33;33601;-64
2023/05/29 07:49:51;;;;;;;7.93;4.97;;;;;;;25.81;36.91;99713.66;4246117;33;34886;-64
2023/05/29 07:52:22;;;;;;;10.13;5.25;;;;;;;25.83;37.01;99718.87;4245532;33;34426;-63
2023/05/29 07:54:49;;;;;;;10.52;4.37;;;;;;;25.83;37.06;99718.87;4246045;33;33884;-66
2023/05/29 07:57:17;;;;;;;14.35;4.72;;;;;;;25.82;37.22;99718.06;4246169;33;34207;-64
2023/05/29 07:59:45;;;;;;;9.23;4.53;;;;;;;25.84;37.32;99715.94;4246052;33;34085;-64
2023/05/29 08:02:14;;;;;;;9.45;5.10;;;;;;;25.85;37.36;99712.09;4245976;33;34260;-64
2023/05/29 08:04:42;;;;;;;10.43;5.20;;;;;;;25.86;37.40;99712.94;4246007;33;34114;-64
2023/05/29 08:07:09;;;;;;;10.98;4.43;;;;;;;25.88;37.34;99710.78;4253366;33;33390;-64
2023/05/29 08:09:37;;;;;;;9.32;4.85;;;;;;;25.88;37.52;99714.38;4274291;33;33524;-64
2023/05/29 08:12:06;;;;;;;8.60;4.87;;;;;;;25.89;37.57;99710.56;4274433;33;35362;-64
2023/05/29 08:14:33;;;;;;;9.30;4.68;;;;;;;25.90;37.62;99714.94;4274636;33;34078;-64
2023/05/29 08:17:02;;;;;;;10.95;4.80;;;;;;;25.90;37.57;99714.09;4274480;33;33564;-63
2023/05/29 08:19:30;;;;;;;12.75;5.53;;;;;;;25.93;37.58;99711.72;4274491;33;33636;-64
2023/05/29 08:21:57;;;;;;;7.45;4.57;;;;;;;25.94;37.60;99712.56;4274281;33;34218;-64
2023/05/29 08:24:25;;;;;;;7.72;4.57;;;;;;;25.93;37.59;99710.91;4274121;33;34582;-64
2023/05/29 08:26:52;;;;;;;10.60;4.72;;;;;;;25.95;37.56;99722.41;4274367;33;33755;-65
2023/05/29 08:29:20;;;;;;;10.60;4.53;;;;;;;25.94;37.50;99713.38;4274367;33;34817;-64
2023/05/29 08:31:47;;;;;;;7.87;4.72;;;;;;;25.94;37.64;99713.38;4274184;33;34317;-64
2023/05/29 08:34:15;;;;;;;9.65;4.80;;;;;;;25.96;37.65;99713.13;4274328;33;34165;-64
2023/05/29 08:36:43;;;;;;;7.75;4.87;;;;;;;25.95;37.75;99711.47;4274261;33;33711;-63
2023/05/29 08:39:10;;;;;;;7.40;5.07;;;;;;;25.95;37.77;99717.75;4274294;33;34794;-64
2023/05/29 08:41:42;;;;;;;8.45;4.75;;;;;;;25.97;37.78;99713.94;4274455;33;34013;-64
2023/05/29 08:44:09;;;;;;;8.55;4.75;;;;;;;25.97;37.86;99712.03;4261673;33;34839;-64
2023/05/29 08:46:37;;;;;;;9.45;4.97;;;;;;;25.95;37.87;99703.25;4261600;33;34441;-64
2023/05/29 08:49:05;;;;;;;8.38;5.03;;;;;;;25.97;37.88;99703.00;4261647;33;33593;-64
2023/05/29 08:51:34;;;;;;;8.02;5.07;;;;;;;25.95;37.95;99704.09;4261926;33;34695;-64
2023/05/29 08:54:02;;;;;;;9.93;4.45;;;;;;;25.98;38.00;99699.22;4261849;33;33999;-64
2023/05/29 08:56:30;;;;;;;8.27;4.53;;;;;;;25.99;37.99;99698.16;4261384;33;34259;-65
2023/05/29 08:59:02;;;;;;;9.90;4.65;;;;;;;25.98;38.04;99704.69;4250877;33;33995;-64
2023/05/29 09:01:38;;;;;;;13.38;4.80;;;;;;;25.97;38.04;99703.84;4274365;33;33691;-64
2023/05/29 09:04:07;;;;;;;7.12;4.40;;;;;;;25.99;38.02;99703.63;4250335;33;34111;-64
2023/05/29 09:06:35;;;;;;;9.02;4.78;;;;;;;25.98;38.01;99700.06;4274048;33;33746;-64
2023/05/29 09:09:05;;;;;;;14.57;5.20;;;;;;;25.98;38.10;99691.84;4247388;33;34463;-63
2023/05/29 09:11:33;;;;;;;10.50;4.70;;;;;;;25.99;38.05;99701.69;4260121;33;34024;-63
2023/05/29 09:14:02;;;;;;;11.93;4.78;;;;;;;25.99;38.01;99704.44;4258152;33;35092;-64
2023/05/29 09:16:30;;;;;;;9.75;5.10;;;;;;;26.01;37.93;99699.53;4260085;33;33597;-64
2023/05/29 09:19:06;;;;;;;12.00;5.65;;;;;;;26.01;37.99;99709.66;4260186;33;33932;-64
2023/05/29 09:21:34;;;;;;;8.38;4.70;;;;;;;26.02;38.10;99709.44;4260151;33;33780;-63
2023/05/29 09:24:05;;;;;;;10.73;5.28;;;;;;;26.02;38.07;99705.84;4260040;33;34631;-64
2023/05/29 09:26:33;;;;;;;14.60;5.50;;;;;;;26.03;38.22;99705.59;4259909;33;33597;-64
2023/05/29 09:29:02;;;;;;;8.40;5.07;;;;;;;26.04;38.25;99707.25;4259102;33;33608;-64
2023/05/29 09:31:30;;;;;;;7.68;4.90;;;;;;;26.02;38.31;99709.44;4258927;33;34959;-64
2023/05/29 09:33:57;;;;;;;10.02;4.95;;;;;;;26.06;38.33;99707.81;4259460;33;34331;-64
2023/05/29 09:36:25;;;;;;;10.32;5.15;;;;;;;26.05;38.31;99711.66;4246899;33;33718;-64
2023/05/29 09:38:53;;;;;;;9.35;4.47;;;;;;;26.05;38.36;99708.91;4259868;33;33757;-64
2023/05/29 09:41:32;;;;;;;9.90;5.30;;;;;;;26.05;38.39;99710.81;4259774;33;34052;-64
2023/05/29 09:44:00;;;;;;;11.98;5.30;;;;;;;26.05;38.41;99717.13;4259970;33;34968;-63
2023/05/29 09:46:28;;;;;;;9.32;4.82;;;;;;;26.07;38.42;99716.88;4259862;33;34013;-64
2023/05/29 09:48:55;;;;;;;8.15;4.90;;;;;;;26.06;38.48;99713.31;4259991;33;33611;-64
2023/05/29 09:51:23;;;;;;;10.25;4.87;;;;;;;26.06;38.55;99712.47;4247090;33;34028;-64
2023/05/29 09:53:56;;;;;;;8.85;4.35;;;;;;;26.07;38.58;99706.78;4259617;33;34976;-64
2023/05/29 09:56:24;;;;;;;8.27;4.32;;;;;;;26.09;38.60;99717.47;4259782;33;34364;-64
2023/05/29 09:58:53;;;;;;;9.85;4.78;;;;;;;26.08;38.54;99713.06;4259821;33;33796;-64
2023/05/29 10:01:21;;;;;;;8.05;4.97;;;;;;;26.08;38.66;99718.53;4247090;33;33901;-64
2023/05/29 10:03:49;;;;;;;15.00;5.03;;;;;;;26.08;38.61;99719.37;4247009;33;35241;-64
2023/05/29 10:06:18;;;;;;;7.82;4.72;;;;;;;26.08;38.62;99715.81;4259889;33;33740;-65
2023/05/29 10:08:49;;;;;;;11.23;5.20;;;;;;;26.09;38.64;99720.19;4234912;33;33908;-64
2023/05/29 10:11:19;;;;;;;12.50;5.35;;;;;;;26.08;38.73;99722.09;4259599;33;34950;-63
2023/05/29 10:13:48;;;;;;;10.73;5.07;;;;;;;26.09;38.58;99723.75;4246745;33;34954;-64
2023/05/29 10:16:16;;;;;;;11.12;5.22;;;;;;;26.10;38.53;99727.31;4258313;33;33347;-63
2023/05/29 10:18:45;;;;;;;8.23;5.00;;;;;;;26.09;38.45;99729.22;4258636;33;34079;-63
2023/05/29 10:21:12;;;;;;;8.85;4.97;;;;;;;26.08;38.42;99724.84;4258111;33;34051;-63
2023/05/29 10:23:42;;;;;;;10.18;4.82;;;;;;;26.08;38.29;99730.31;4258486;33;34925;-63
2023/05/29 10:26:15;;;;;;;9.02;4.70;;;;;;;26.07;38.30;99719.63;4248015;33;34415;-64
2023/05/29 10:28:46;;;;;;;8.32;4.57;;;;;;;26.09;38.19;99725.66;4248204;33;34710;-63
2023/05/29 10:31:20;;;;;;;11.10;5.15;;;;;;;26.07;38.19;99725.91;4259875;33;34670;-63
2023/05/29 10:33:54;;;;;;;13.50;5.18;;;;;;;26.07;38.17;99725.91;4248221;33;34064;-64
2023/05/29 10:36:23;;;;;;;8.30;4.65;;;;;;;26.06;38.19;99729.69;4261065;33;33795;-64
2023/05/29 10:38:51;;;;;;;;;;;;;;;26.05;38.15;99719.84;4248672;33;33994;-64
2023/05/29 10:41:28;;;;;;;8.27;4.78;;;;;;;26.15;38.03;99728.22;4271513;33;33818;-64
2023/05/29 10:43:59;;;;;;;12.15;5.12;;;;;;;26.08;38.20;99724.84;4261017;33;33915;-64
2023/05/29 10:46:42;;;;;;;10.63;4.95;;;;;;;26.04;38.28;99726.41;4260957;33;33419;-64
2023/05/29 10:49:16;;;;;;;7.85;4.97;;;;;;;26.05;38.28;99719.84;4261070;33;34641;-63
2023/05/29 10:51:44;;;;;;;9.10;4.95;;;;;;;26.03;38.36;99708.34;4259763;33;33549;-63
2023/05/29 10:54:16;;;;;;;8.18;5.07;;;;;;;26.03;38.41;99712.97;4259808;33;34962;-63
2023/05/29 10:56:45;;;;;;;8.05;5.03;;;;;;;26.02;38.44;99703.97;4259708;33;33364;-64
2023/05/29 10:59:12;;;;;;;23.70;5.68;;;;;;;26.03;38.48;99708.34;4260329;33;33419;-64
2023/05/29 11:01:40;;;;;;;10.38;5.25;;;;;;;26.04;38.54;99710.00;4259728;33;34956;-64
2023/05/29 11:04:26;;;;;;;10.43;5.20;;;;;;;26.04;38.59;99707.25;4261057;33;34105;-64
2023/05/29 11:06:55;;;;;;;10.63;5.82;;;;;;;26.05;38.61;99711.66;4262882;33;33648;-63
2023/05/29 11:09:34;;;;;;;11.20;5.55;;;;;;;26.04;38.71;99706.44;4275269;33;33478;-63
2023/05/29 11:12:33;;;;;;;10.02;5.65;;;;;;;26.04;38.88;99704.53;4275142;33;35201;-64
2023/05/29 11:15:09;;;;;;;8.63;5.55;;;;;;;26.08;39.00;99704.88;4274829;33;34727;-64
2023/05/29 11:17:37;;;;;;;9.35;5.18;;;;;;;26.06;39.19;99702.38;4262406;33;33588;-64
2023/05/29 11:20:09;;;;;;;14.32;6.30;;;;;;;26.05;39.25;99708.09;4274990;33;34656;-64
2023/05/29 11:22:43;;;;;;;11.88;6.20;;;;;;;26.03;39.26;99707.53;4274950;33;34040;-64
2023/05/29 11:25:10;;;;;;;8.45;5.55;;;;;;;26.04;39.26;99695.50;4267245;33;34139;-64
2023/05/29 11:27:38;;;;;;;9.02;5.35;;;;;;;26.04;39.26;99701.78;4233751;33;33805;-64
2023/05/29 11:30:06;;;;;;;9.20;5.78;;;;;;;26.06;39.28;99696.91;4234489;33;34562;-65
2023/05/29 11:32:34;;;;;;;11.45;6.32;;;;;;;26.07;39.32;99704.03;4246640;33;33753;-65
2023/05/29 11:35:08;;;;;;;13.52;5.60;;;;;;;26.06;39.37;99696.91;4246419;33;34877;-64
2023/05/29 11:37:37;;;;;;;10.50;5.28;;;;;;;26.07;39.37;99698.56;4257356;33;33497;-64
2023/05/29 11:40:06;;;;;;;10.77;6.07;;;;;;;26.08;39.37;99700.22;4247741;33;34006;-65